sensor_id;sensor_type;location;lat;lon;timestamp;P1;durP1;ratioP1;P2;durP2;ratioP2
17997;SDS011;9124;48.144;17.098;2024-03-25T00:01:21;1.13;;;1.08;;
17997;SDS011;9124;48.144;17.098;2024-03-25T00:05:47;1.20;;;1.00;;
17997;SDS011;9124;48.144;17.098;2024-03-25T00:10:14;1.85;;;1.13;;
17997;SDS011;9124;48.144;17.098;2024-03-25T00:14:41;0.75;;;0.75;;
17997;SDS011;9124;48.144;17.098;2024-03-25T00:19:07;1.42;;;0.95;;
17997;SDS011;9124;48.144;17.098;2024-03-25T00:23:34;1.42;;;0.90;;
17997;SDS011;9124;48.144;17.098;2024-03-25T00:28:00;1.00;;;0.90;;
17997;SDS011;9124;48.144;17.098;2024-03-25T00:32:26;1.65;;;0.70;;
17997;SDS011;9124;48.144;17.098;2024-03-25T00:36:52;1.20;;;1.10;;
17997;SDS011;9124;48.144;17.098;2024-03-25T00:41:19;0.93;;;0.93;;
17997;SDS011;9124;48.144;17.098;2024-03-25T00:45:45;1.40;;;1.10;;
17997;SDS011;9124;48.144;17.098;2024-03-25T00:50:12;0.90;;;0.90;;
17997;SDS011;9124;48.144;17.098;2024-03-25T00:54:40;0.80;;;0.80;;
17997;SDS011;9124;48.144;17.098;2024-03-25T00:59:07;0.80;;;0.80;;
17997;SDS011;9124;48.144;17.098;2024-03-25T01:03:33;2.17;;;1.00;;
17997;SDS011;9124;48.144;17.098;2024-03-25T01:08:00;1.20;;;0.93;;
17997;SDS011;9124;48.144;17.098;2024-03-25T01:12:28;0.80;;;0.70;;
17997;SDS011;9124;48.144;17.098;2024-03-25T01:16:55;1.50;;;0.95;;
17997;SDS011;9124;48.144;17.098;2024-03-25T01:21:22;0.80;;;0.65;;
17997;SDS011;9124;48.144;17.098;2024-03-25T01:25:49;0.55;;;0.55;;
17997;SDS011;9124;48.144;17.098;2024-03-25T01:30:15;0.52;;;0.52;;
17997;SDS011;9124;48.144;17.098;2024-03-25T01:34:42;0.65;;;0.65;;
17997;SDS011;9124;48.144;17.098;2024-03-25T01:39:08;0.98;;;0.80;;
17997;SDS011;9124;48.144;17.098;2024-03-25T01:43:36;0.90;;;0.70;;
17997;SDS011;9124;48.144;17.098;2024-03-25T01:48:04;0.73;;;0.70;;
17997;SDS011;9124;48.144;17.098;2024-03-25T01:52:33;1.00;;;0.85;;
17997;SDS011;9124;48.144;17.098;2024-03-25T01:57:00;2.47;;;0.70;;
17997;SDS011;9124;48.144;17.098;2024-03-25T02:01:27;0.50;;;0.50;;
17997;SDS011;9124;48.144;17.098;2024-03-25T02:05:55;0.63;;;0.63;;
17997;SDS011;9124;48.144;17.098;2024-03-25T02:10:24;1.02;;;0.57;;
17997;SDS011;9124;48.144;17.098;2024-03-25T02:14:52;1.38;;;0.90;;
17997;SDS011;9124;48.144;17.098;2024-03-25T02:19:18;0.70;;;0.70;;
17997;SDS011;9124;48.144;17.098;2024-03-25T02:23:46;0.70;;;0.68;;
17997;SDS011;9124;48.144;17.098;2024-03-25T02:28:15;0.90;;;0.90;;
17997;SDS011;9124;48.144;17.098;2024-03-25T02:32:42;1.40;;;1.02;;
17997;SDS011;9124;48.144;17.098;2024-03-25T02:37:08;0.75;;;0.70;;
17997;SDS011;9124;48.144;17.098;2024-03-25T02:41:35;1.42;;;0.80;;
17997;SDS011;9124;48.144;17.098;2024-03-25T02:46:01;2.53;;;0.80;;
17997;SDS011;9124;48.144;17.098;2024-03-25T02:50:28;0.80;;;0.80;;
17997;SDS011;9124;48.144;17.098;2024-03-25T02:54:54;1.02;;;0.98;;
17997;SDS011;9124;48.144;17.098;2024-03-25T02:59:21;0.95;;;0.80;;
17997;SDS011;9124;48.144;17.098;2024-03-25T03:03:47;0.90;;;0.73;;
17997;SDS011;9124;48.144;17.098;2024-03-25T03:08:14;1.08;;;0.73;;
17997;SDS011;9124;48.144;17.098;2024-03-25T03:12:40;0.80;;;0.80;;
17997;SDS011;9124;48.144;17.098;2024-03-25T03:17:07;0.80;;;0.80;;
17997;SDS011;9124;48.144;17.098;2024-03-25T03:21:34;0.80;;;0.80;;
17997;SDS011;9124;48.144;17.098;2024-03-25T03:26:02;1.00;;;1.00;;
17997;SDS011;9124;48.144;17.098;2024-03-25T03:30:28;0.70;;;0.70;;
17997;SDS011;9124;48.144;17.098;2024-03-25T03:34:56;0.80;;;0.80;;
17997;SDS011;9124;48.144;17.098;2024-03-25T03:39:22;0.60;;;0.60;;
17997;SDS011;9124;48.144;17.098;2024-03-25T03:43:49;0.60;;;0.60;;
17997;SDS011;9124;48.144;17.098;2024-03-25T03:48:15;0.70;;;0.70;;
17997;SDS011;9124;48.144;17.098;2024-03-25T03:52:41;0.90;;;0.90;;
17997;SDS011;9124;48.144;17.098;2024-03-25T03:57:08;0.90;;;0.90;;
17997;SDS011;9124;48.144;17.098;2024-03-25T04:01:34;0.73;;;0.73;;
17997;SDS011;9124;48.144;17.098;2024-03-25T04:06:07;0.88;;;0.88;;
17997;SDS011;9124;48.144;17.098;2024-03-25T04:10:37;1.17;;;1.05;;
17997;SDS011;9124;48.144;17.098;2024-03-25T04:15:04;1.10;;;1.10;;
17997;SDS011;9124;48.144;17.098;2024-03-25T04:19:31;1.27;;;0.90;;
17997;SDS011;9124;48.144;17.098;2024-03-25T04:23:58;1.00;;;1.00;;
17997;SDS011;9124;48.144;17.098;2024-03-25T04:28:24;1.63;;;1.27;;
17997;SDS011;9124;48.144;17.098;2024-03-25T04:32:51;1.50;;;1.40;;
17997;SDS011;9124;48.144;17.098;2024-03-25T04:37:17;2.78;;;1.63;;
17997;SDS011;9124;48.144;17.098;2024-03-25T04:41:44;1.60;;;1.50;;
17997;SDS011;9124;48.144;17.098;2024-03-25T04:46:10;2.55;;;1.40;;
17997;SDS011;9124;48.144;17.098;2024-03-25T04:50:37;2.40;;;1.48;;
17997;SDS011;9124;48.144;17.098;2024-03-25T04:55:03;1.73;;;1.63;;
17997;SDS011;9124;48.144;17.098;2024-03-25T04:59:30;3.25;;;1.77;;
17997;SDS011;9124;48.144;17.098;2024-03-25T05:03:56;1.88;;;1.77;;
17997;SDS011;9124;48.144;17.098;2024-03-25T05:08:23;1.98;;;1.58;;
17997;SDS011;9124;48.144;17.098;2024-03-25T05:12:50;1.00;;;1.00;;
17997;SDS011;9124;48.144;17.098;2024-03-25T05:17:16;1.60;;;1.50;;
17997;SDS011;9124;48.144;17.098;2024-03-25T05:21:43;1.67;;;1.58;;
17997;SDS011;9124;48.144;17.098;2024-03-25T05:26:10;2.70;;;1.20;;
17997;SDS011;9124;48.144;17.098;2024-03-25T05:30:36;1.60;;;1.50;;
17997;SDS011;9124;48.144;17.098;2024-03-25T05:35:04;3.35;;;1.30;;
17997;SDS011;9124;48.144;17.098;2024-03-25T05:39:30;1.60;;;1.50;;
17997;SDS011;9124;48.144;17.098;2024-03-25T05:43:57;1.50;;;1.40;;
17997;SDS011;9124;48.144;17.098;2024-03-25T05:48:27;1.70;;;1.60;;
17997;SDS011;9124;48.144;17.098;2024-03-25T05:52:53;2.25;;;1.75;;
17997;SDS011;9124;48.144;17.098;2024-03-25T05:57:20;1.60;;;1.50;;
17997;SDS011;9124;48.144;17.098;2024-03-25T06:01:46;2.10;;;1.90;;
17997;SDS011;9124;48.144;17.098;2024-03-25T06:06:13;2.28;;;1.75;;
17997;SDS011;9124;48.144;17.098;2024-03-25T06:10:41;3.60;;;1.67;;
17997;SDS011;9124;48.144;17.098;2024-03-25T06:15:07;1.77;;;1.67;;
17997;SDS011;9124;48.144;17.098;2024-03-25T06:19:34;1.67;;;1.48;;
17997;SDS011;9124;48.144;17.098;2024-03-25T06:24:00;1.88;;;1.52;;
17997;SDS011;9124;48.144;17.098;2024-03-25T06:28:27;1.40;;;1.33;;
17997;SDS011;9124;48.144;17.098;2024-03-25T06:32:53;1.50;;;1.38;;
17997;SDS011;9124;48.144;17.098;2024-03-25T06:37:38;2.13;;;1.92;;
17997;SDS011;9124;48.144;17.098;2024-03-25T06:42:04;2.38;;;1.73;;
17997;SDS011;9124;48.144;17.098;2024-03-25T06:46:31;3.15;;;1.92;;
17997;SDS011;9124;48.144;17.098;2024-03-25T06:50:58;5.10;;;1.80;;
17997;SDS011;9124;48.144;17.098;2024-03-25T06:55:25;3.55;;;3.25;;
17997;SDS011;9124;48.144;17.098;2024-03-25T06:59:54;2.85;;;2.33;;
17997;SDS011;9124;48.144;17.098;2024-03-25T07:04:24;2.42;;;2.28;;
17997;SDS011;9124;48.144;17.098;2024-03-25T07:08:51;1.95;;;1.50;;
17997;SDS011;9124;48.144;17.098;2024-03-25T07:13:17;3.50;;;1.63;;
17997;SDS011;9124;48.144;17.098;2024-03-25T07:17:44;1.60;;;1.50;;
17997;SDS011;9124;48.144;17.098;2024-03-25T07:22:10;2.72;;;1.67;;
17997;SDS011;9124;48.144;17.098;2024-03-25T07:26:37;2.67;;;1.80;;
17997;SDS011;9124;48.144;17.098;2024-03-25T07:31:03;4.20;;;2.25;;
17997;SDS011;9124;48.144;17.098;2024-03-25T07:35:30;1.80;;;1.70;;
17997;SDS011;9124;48.144;17.098;2024-03-25T07:39:57;3.17;;;1.60;;
17997;SDS011;9124;48.144;17.098;2024-03-25T07:44:23;2.00;;;1.85;;
17997;SDS011;9124;48.144;17.098;2024-03-25T07:48:50;3.05;;;1.90;;
17997;SDS011;9124;48.144;17.098;2024-03-25T07:53:17;3.20;;;1.60;;
17997;SDS011;9124;48.144;17.098;2024-03-25T07:57:44;1.80;;;1.70;;
17997;SDS011;9124;48.144;17.098;2024-03-25T08:02:10;4.20;;;1.58;;
17997;SDS011;9124;48.144;17.098;2024-03-25T08:06:37;2.92;;;1.70;;
17997;SDS011;9124;48.144;17.098;2024-03-25T08:11:04;3.80;;;1.63;;
17997;SDS011;9124;48.144;17.098;2024-03-25T08:15:30;2.33;;;2.00;;
17997;SDS011;9124;48.144;17.098;2024-03-25T08:19:57;1.50;;;1.40;;
17997;SDS011;9124;48.144;17.098;2024-03-25T08:24:24;3.97;;;1.65;;
17997;SDS011;9124;48.144;17.098;2024-03-25T08:28:50;2.83;;;1.88;;
17997;SDS011;9124;48.144;17.098;2024-03-25T08:33:16;3.15;;;1.67;;
17997;SDS011;9124;48.144;17.098;2024-03-25T08:37:43;2.05;;;1.55;;
17997;SDS011;9124;48.144;17.098;2024-03-25T08:42:09;2.50;;;1.60;;
17997;SDS011;9124;48.144;17.098;2024-03-25T08:46:36;2.92;;;1.75;;
17997;SDS011;9124;48.144;17.098;2024-03-25T08:51:03;1.88;;;1.63;;
17997;SDS011;9124;48.144;17.098;2024-03-25T08:55:30;1.85;;;1.73;;
17997;SDS011;9124;48.144;17.098;2024-03-25T08:59:56;4.40;;;1.77;;
17997;SDS011;9124;48.144;17.098;2024-03-25T09:04:24;1.20;;;1.17;;
17997;SDS011;9124;48.144;17.098;2024-03-25T09:08:50;2.80;;;1.30;;
17997;SDS011;9124;48.144;17.098;2024-03-25T09:13:35;2.90;;;1.33;;
17997;SDS011;9124;48.144;17.098;2024-03-25T09:18:02;2.55;;;1.20;;
17997;SDS011;9124;48.144;17.098;2024-03-25T09:22:29;1.52;;;1.10;;
17997;SDS011;9124;48.144;17.098;2024-03-25T09:26:55;1.25;;;1.15;;
17997;SDS011;9124;48.144;17.098;2024-03-25T09:31:21;1.30;;;1.20;;
17997;SDS011;9124;48.144;17.098;2024-03-25T09:35:48;2.90;;;1.33;;
17997;SDS011;9124;48.144;17.098;2024-03-25T09:40:14;1.65;;;1.40;;
17997;SDS011;9124;48.144;17.098;2024-03-25T09:44:42;3.40;;;1.20;;
17997;SDS011;9124;48.144;17.098;2024-03-25T09:49:09;1.75;;;1.40;;
17997;SDS011;9124;48.144;17.098;2024-03-25T09:53:36;2.20;;;1.73;;
17997;SDS011;9124;48.144;17.098;2024-03-25T09:58:02;1.90;;;1.50;;
17997;SDS011;9124;48.144;17.098;2024-03-25T10:02:31;1.30;;;0.98;;
17997;SDS011;9124;48.144;17.098;2024-03-25T10:07:00;1.40;;;1.10;;
17997;SDS011;9124;48.144;17.098;2024-03-25T10:11:26;3.13;;;1.23;;
17997;SDS011;9124;48.144;17.098;2024-03-25T10:15:54;2.67;;;1.20;;
17997;SDS011;9124;48.144;17.098;2024-03-25T10:20:21;1.10;;;1.00;;
17997;SDS011;9124;48.144;17.098;2024-03-25T10:24:48;2.10;;;1.45;;
17997;SDS011;9124;48.144;17.098;2024-03-25T10:29:14;1.33;;;1.15;;
17997;SDS011;9124;48.144;17.098;2024-03-25T10:33:41;1.15;;;1.13;;
17997;SDS011;9124;48.144;17.098;2024-03-25T10:38:08;1.25;;;1.10;;
17997;SDS011;9124;48.144;17.098;2024-03-25T10:42:36;1.95;;;1.40;;
17997;SDS011;9124;48.144;17.098;2024-03-25T10:47:05;2.25;;;1.05;;
17997;SDS011;9124;48.144;17.098;2024-03-25T10:51:34;1.20;;;1.10;;
17997;SDS011;9124;48.144;17.098;2024-03-25T10:56:01;1.35;;;1.10;;
17997;SDS011;9124;48.144;17.098;2024-03-25T11:00:31;1.10;;;1.10;;
17997;SDS011;9124;48.144;17.098;2024-03-25T11:04:59;1.00;;;0.90;;
17997;SDS011;9124;48.144;17.098;2024-03-25T11:09:26;1.60;;;1.30;;
17997;SDS011;9124;48.144;17.098;2024-03-25T11:13:52;4.00;;;1.23;;
17997;SDS011;9124;48.144;17.098;2024-03-25T11:18:22;1.38;;;1.20;;
17997;SDS011;9124;48.144;17.098;2024-03-25T11:22:52;1.48;;;1.15;;
17997;SDS011;9124;48.144;17.098;2024-03-25T11:27:22;3.25;;;1.20;;
17997;SDS011;9124;48.144;17.098;2024-03-25T11:31:53;1.23;;;0.93;;
17997;SDS011;9124;48.144;17.098;2024-03-25T11:36:21;3.08;;;0.70;;
17997;SDS011;9124;48.144;17.098;2024-03-25T11:40:51;1.17;;;1.00;;
17997;SDS011;9124;48.144;17.098;2024-03-25T11:45:21;0.95;;;0.90;;
17997;SDS011;9124;48.144;17.098;2024-03-25T11:49:49;0.65;;;0.65;;
17997;SDS011;9124;48.144;17.098;2024-03-25T11:54:15;1.25;;;1.15;;
17997;SDS011;9124;48.144;17.098;2024-03-25T11:58:42;1.30;;;1.13;;
17997;SDS011;9124;48.144;17.098;2024-03-25T12:03:13;1.35;;;1.00;;
17997;SDS011;9124;48.144;17.098;2024-03-25T12:07:42;1.67;;;0.95;;
17997;SDS011;9124;48.144;17.098;2024-03-25T12:12:08;3.30;;;0.80;;
17997;SDS011;9124;48.144;17.098;2024-03-25T12:16:35;1.20;;;1.10;;
17997;SDS011;9124;48.144;17.098;2024-03-25T12:21:01;1.48;;;0.98;;
17997;SDS011;9124;48.144;17.098;2024-03-25T12:25:30;1.25;;;1.15;;
17997;SDS011;9124;48.144;17.098;2024-03-25T12:30:00;1.38;;;1.15;;
17997;SDS011;9124;48.144;17.098;2024-03-25T12:34:33;0.80;;;0.80;;
17997;SDS011;9124;48.144;17.098;2024-03-25T12:38:59;1.52;;;0.95;;
17997;SDS011;9124;48.144;17.098;2024-03-25T12:43:28;2.10;;;0.93;;
17997;SDS011;9124;48.144;17.098;2024-03-25T12:47:57;4.68;;;0.90;;
17997;SDS011;9124;48.144;17.098;2024-03-25T12:52:24;1.10;;;1.00;;
17997;SDS011;9124;48.144;17.098;2024-03-25T12:56:51;2.58;;;0.93;;
17997;SDS011;9124;48.144;17.098;2024-03-25T13:01:17;1.17;;;0.95;;
17997;SDS011;9124;48.144;17.098;2024-03-25T13:05:44;3.80;;;1.15;;
17997;SDS011;9124;48.144;17.098;2024-03-25T13:10:10;0.85;;;0.85;;
17997;SDS011;9124;48.144;17.098;2024-03-25T13:14:37;2.15;;;1.10;;
17997;SDS011;9124;48.144;17.098;2024-03-25T13:23:58;5.45;;;1.20;;
17997;SDS011;9124;48.144;17.098;2024-03-25T13:28:24;1.73;;;1.30;;
17997;SDS011;9124;48.144;17.098;2024-03-25T13:32:51;2.83;;;1.10;;
17997;SDS011;9124;48.144;17.098;2024-03-25T13:37:17;2.63;;;1.30;;
17997;SDS011;9124;48.144;17.098;2024-03-25T13:41:43;1.48;;;1.15;;
17997;SDS011;9124;48.144;17.098;2024-03-25T13:46:11;2.17;;;1.02;;
17997;SDS011;9124;48.144;17.098;2024-03-25T13:50:38;1.25;;;1.10;;
17997;SDS011;9124;48.144;17.098;2024-03-25T13:55:04;4.78;;;1.20;;
17997;SDS011;9124;48.144;17.098;2024-03-25T13:59:31;0.85;;;0.80;;
17997;SDS011;9124;48.144;17.098;2024-03-25T14:03:58;1.85;;;1.08;;
17997;SDS011;9124;48.144;17.098;2024-03-25T14:08:25;1.83;;;1.00;;
17997;SDS011;9124;48.144;17.098;2024-03-25T14:12:51;0.98;;;0.98;;
17997;SDS011;9124;48.144;17.098;2024-03-25T14:17:18;2.25;;;1.30;;
17997;SDS011;9124;48.144;17.098;2024-03-25T14:21:44;1.55;;;0.80;;
17997;SDS011;9124;48.144;17.098;2024-03-25T14:26:11;1.20;;;1.08;;
17997;SDS011;9124;48.144;17.098;2024-03-25T14:30:39;0.90;;;0.80;;
17997;SDS011;9124;48.144;17.098;2024-03-25T14:35:05;1.90;;;1.25;;
17997;SDS011;9124;48.144;17.098;2024-03-25T14:39:32;1.13;;;1.00;;
17997;SDS011;9124;48.144;17.098;2024-03-25T14:43:59;1.10;;;1.10;;
17997;SDS011;9124;48.144;17.098;2024-03-25T14:48:26;1.52;;;1.00;;
17997;SDS011;9124;48.144;17.098;2024-03-25T14:52:52;1.60;;;0.80;;
17997;SDS011;9124;48.144;17.098;2024-03-25T14:57:18;2.33;;;0.95;;
17997;SDS011;9124;48.144;17.098;2024-03-25T15:01:45;2.72;;;1.08;;
17997;SDS011;9124;48.144;17.098;2024-03-25T15:06:11;1.02;;;0.93;;
17997;SDS011;9124;48.144;17.098;2024-03-25T15:10:38;0.80;;;0.80;;
17997;SDS011;9124;48.144;17.098;2024-03-25T15:15:05;5.93;;;1.30;;
17997;SDS011;9124;48.144;17.098;2024-03-25T15:19:34;1.05;;;0.90;;
17997;SDS011;9124;48.144;17.098;2024-03-25T15:24:01;1.10;;;0.77;;
17997;SDS011;9124;48.144;17.098;2024-03-25T15:28:27;3.33;;;0.95;;
17997;SDS011;9124;48.144;17.098;2024-03-25T15:32:54;2.65;;;1.30;;
17997;SDS011;9124;48.144;17.098;2024-03-25T15:37:21;1.77;;;0.95;;
17997;SDS011;9124;48.144;17.098;2024-03-25T15:41:47;3.42;;;0.90;;
17997;SDS011;9124;48.144;17.098;2024-03-25T15:46:15;3.33;;;0.93;;
17997;SDS011;9124;48.144;17.098;2024-03-25T15:50:42;2.58;;;1.33;;
17997;SDS011;9124;48.144;17.098;2024-03-25T15:55:08;3.83;;;1.30;;
17997;SDS011;9124;48.144;17.098;2024-03-25T15:59:35;2.38;;;1.27;;
17997;SDS011;9124;48.144;17.098;2024-03-25T16:04:01;1.20;;;1.02;;
17997;SDS011;9124;48.144;17.098;2024-03-25T16:08:28;2.00;;;0.75;;
17997;SDS011;9124;48.144;17.098;2024-03-25T16:12:57;5.68;;;1.13;;
17997;SDS011;9124;48.144;17.098;2024-03-25T16:17:24;2.65;;;1.10;;
17997;SDS011;9124;48.144;17.098;2024-03-25T16:21:51;3.70;;;0.80;;
17997;SDS011;9124;48.144;17.098;2024-03-25T16:26:17;1.10;;;1.00;;
17997;SDS011;9124;48.144;17.098;2024-03-25T16:30:44;6.28;;;1.15;;
17997;SDS011;9124;48.144;17.098;2024-03-25T16:35:12;3.13;;;0.95;;
17997;SDS011;9124;48.144;17.098;2024-03-25T16:39:39;1.00;;;0.90;;
17997;SDS011;9124;48.144;17.098;2024-03-25T16:44:05;4.30;;;1.13;;
17997;SDS011;9124;48.144;17.098;2024-03-25T16:48:31;4.57;;;1.10;;
17997;SDS011;9124;48.144;17.098;2024-03-25T16:52:58;1.92;;;1.35;;
17997;SDS011;9124;48.144;17.098;2024-03-25T16:57:27;1.10;;;1.00;;
17997;SDS011;9124;48.144;17.098;2024-03-25T17:01:54;2.70;;;1.05;;
17997;SDS011;9124;48.144;17.098;2024-03-25T17:06:21;1.30;;;1.10;;
17997;SDS011;9124;48.144;17.098;2024-03-25T17:10:47;2.78;;;1.20;;
17997;SDS011;9124;48.144;17.098;2024-03-25T17:15:13;1.02;;;1.00;;
17997;SDS011;9124;48.144;17.098;2024-03-25T17:19:39;1.90;;;0.70;;
17997;SDS011;9124;48.144;17.098;2024-03-25T17:24:06;0.90;;;0.90;;
17997;SDS011;9124;48.144;17.098;2024-03-25T17:28:32;2.90;;;1.10;;
17997;SDS011;9124;48.144;17.098;2024-03-25T17:33:01;6.25;;;1.00;;
17997;SDS011;9124;48.144;17.098;2024-03-25T17:37:29;3.17;;;1.00;;
17997;SDS011;9124;48.144;17.098;2024-03-25T17:41:57;1.08;;;1.00;;
17997;SDS011;9124;48.144;17.098;2024-03-25T17:46:23;4.18;;;3.83;;
17997;SDS011;9124;48.144;17.098;2024-03-25T17:50:53;2.25;;;2.05;;
17997;SDS011;9124;48.144;17.098;2024-03-25T17:55:27;1.45;;;1.27;;
17997;SDS011;9124;48.144;17.098;2024-03-25T17:59:54;1.20;;;1.15;;
17997;SDS011;9124;48.144;17.098;2024-03-25T18:04:20;1.77;;;1.10;;
17997;SDS011;9124;48.144;17.098;2024-03-25T18:08:47;2.28;;;1.50;;
17997;SDS011;9124;48.144;17.098;2024-03-25T18:13:13;6.10;;;1.50;;
17997;SDS011;9124;48.144;17.098;2024-03-25T18:17:40;1.77;;;1.67;;
17997;SDS011;9124;48.144;17.098;2024-03-25T18:22:06;3.42;;;2.00;;
17997;SDS011;9124;48.144;17.098;2024-03-25T18:26:34;5.00;;;2.10;;
17997;SDS011;9124;48.144;17.098;2024-03-25T18:31:00;3.58;;;2.03;;
17997;SDS011;9124;48.144;17.098;2024-03-25T18:35:28;3.15;;;2.65;;
17997;SDS011;9124;48.144;17.098;2024-03-25T18:40:05;2.42;;;1.63;;
17997;SDS011;9124;48.144;17.098;2024-03-25T18:44:39;2.00;;;1.80;;
17997;SDS011;9124;48.144;17.098;2024-03-25T18:49:05;3.75;;;3.15;;
17997;SDS011;9124;48.144;17.098;2024-03-25T18:53:32;5.78;;;2.80;;
17997;SDS011;9124;48.144;17.098;2024-03-25T18:57:58;3.08;;;2.25;;
17997;SDS011;9124;48.144;17.098;2024-03-25T19:02:24;1.52;;;1.40;;
17997;SDS011;9124;48.144;17.098;2024-03-25T19:06:51;2.80;;;2.22;;
17997;SDS011;9124;48.144;17.098;2024-03-25T19:11:17;2.88;;;2.53;;
17997;SDS011;9124;48.144;17.098;2024-03-25T19:15:44;3.00;;;2.70;;
17997;SDS011;9124;48.144;17.098;2024-03-25T19:20:12;6.15;;;2.88;;
17997;SDS011;9124;48.144;17.098;2024-03-25T19:24:38;2.83;;;2.47;;
17997;SDS011;9124;48.144;17.098;2024-03-25T19:29:05;3.97;;;3.17;;
17997;SDS011;9124;48.144;17.098;2024-03-25T19:33:31;3.17;;;2.88;;
17997;SDS011;9124;48.144;17.098;2024-03-25T19:37:57;4.90;;;2.60;;
17997;SDS011;9124;48.144;17.098;2024-03-25T19:42:24;3.42;;;3.03;;
17997;SDS011;9124;48.144;17.098;2024-03-25T19:46:50;4.55;;;3.03;;
17997;SDS011;9124;48.144;17.098;2024-03-25T19:51:17;3.55;;;3.25;;
17997;SDS011;9124;48.144;17.098;2024-03-25T19:55:43;3.53;;;3.10;;
17997;SDS011;9124;48.144;17.098;2024-03-25T20:00:09;3.40;;;3.20;;
17997;SDS011;9124;48.144;17.098;2024-03-25T20:04:39;3.88;;;3.58;;
17997;SDS011;9124;48.144;17.098;2024-03-25T20:09:05;4.55;;;3.53;;
17997;SDS011;9124;48.144;17.098;2024-03-25T20:13:31;4.57;;;4.00;;
17997;SDS011;9124;48.144;17.098;2024-03-25T20:17:58;3.42;;;3.13;;
17997;SDS011;9124;48.144;17.098;2024-03-25T20:22:24;3.35;;;3.08;;
17997;SDS011;9124;48.144;17.098;2024-03-25T20:26:51;3.60;;;3.30;;
17997;SDS011;9124;48.144;17.098;2024-03-25T20:31:20;4.55;;;4.00;;
17997;SDS011;9124;48.144;17.098;2024-03-25T20:35:47;3.95;;;3.65;;
17997;SDS011;9124;48.144;17.098;2024-03-25T20:40:13;4.20;;;3.90;;
17997;SDS011;9124;48.144;17.098;2024-03-25T20:44:40;5.85;;;3.60;;
17997;SDS011;9124;48.144;17.098;2024-03-25T20:49:06;4.15;;;3.75;;
17997;SDS011;9124;48.144;17.098;2024-03-25T20:53:32;3.33;;;3.03;;
17997;SDS011;9124;48.144;17.098;2024-03-25T20:57:58;3.90;;;3.60;;
17997;SDS011;9124;48.144;17.098;2024-03-25T21:02:25;3.17;;;2.97;;
17997;SDS011;9124;48.144;17.098;2024-03-25T21:06:53;3.33;;;3.13;;
17997;SDS011;9124;48.144;17.098;2024-03-25T21:11:19;3.80;;;3.58;;
17997;SDS011;9124;48.144;17.098;2024-03-25T21:15:45;3.30;;;3.10;;
17997;SDS011;9124;48.144;17.098;2024-03-25T21:20:12;3.65;;;3.35;;
17997;SDS011;9124;48.144;17.098;2024-03-25T21:24:40;3.83;;;3.53;;
17997;SDS011;9124;48.144;17.098;2024-03-25T21:29:08;3.20;;;3.00;;
17997;SDS011;9124;48.144;17.098;2024-03-25T21:33:34;3.13;;;2.92;;
17997;SDS011;9124;48.144;17.098;2024-03-25T21:38:01;3.47;;;3.28;;
17997;SDS011;9124;48.144;17.098;2024-03-25T21:42:28;3.78;;;3.47;;
17997;SDS011;9124;48.144;17.098;2024-03-25T21:46:54;3.70;;;3.17;;
17997;SDS011;9124;48.144;17.098;2024-03-25T21:51:21;3.72;;;3.40;;
17997;SDS011;9124;48.144;17.098;2024-03-25T21:55:47;3.72;;;3.42;;
17997;SDS011;9124;48.144;17.098;2024-03-25T22:00:14;4.43;;;4.13;;
17997;SDS011;9124;48.144;17.098;2024-03-25T22:04:45;3.20;;;3.00;;
17997;SDS011;9124;48.144;17.098;2024-03-25T22:09:12;3.65;;;3.45;;
17997;SDS011;9124;48.144;17.098;2024-03-25T22:13:38;3.97;;;3.35;;
17997;SDS011;9124;48.144;17.098;2024-03-25T22:18:05;3.17;;;2.95;;
17997;SDS011;9124;48.144;17.098;2024-03-25T22:22:31;3.40;;;3.20;;
17997;SDS011;9124;48.144;17.098;2024-03-25T22:26:58;6.03;;;4.72;;
17997;SDS011;9124;48.144;17.098;2024-03-25T22:31:24;5.32;;;4.93;;
17997;SDS011;9124;48.144;17.098;2024-03-25T22:40:23;5.57;;;5.18;;
17997;SDS011;9124;48.144;17.098;2024-03-25T22:44:50;9.25;;;5.05;;
17997;SDS011;9124;48.144;17.098;2024-03-25T22:49:18;8.15;;;6.05;;
17997;SDS011;9124;48.144;17.098;2024-03-25T22:53:45;6.60;;;6.10;;
17997;SDS011;9124;48.144;17.098;2024-03-25T22:58:11;7.15;;;6.55;;
17997;SDS011;9124;48.144;17.098;2024-03-25T23:02:37;7.85;;;7.00;;
17997;SDS011;9124;48.144;17.098;2024-03-25T23:07:03;6.72;;;6.13;;
17997;SDS011;9124;48.144;17.098;2024-03-25T23:11:30;7.97;;;7.30;;
17997;SDS011;9124;48.144;17.098;2024-03-25T23:15:56;7.47;;;6.82;;
17997;SDS011;9124;48.144;17.098;2024-03-25T23:20:23;16.20;;;8.15;;
17997;SDS011;9124;48.144;17.098;2024-03-25T23:24:49;9.75;;;7.60;;
17997;SDS011;9124;48.144;17.098;2024-03-25T23:29:15;8.63;;;7.80;;
17997;SDS011;9124;48.144;17.098;2024-03-25T23:33:41;9.43;;;8.02;;
17997;SDS011;9124;48.144;17.098;2024-03-25T23:38:08;8.48;;;7.68;;
17997;SDS011;9124;48.144;17.098;2024-03-25T23:42:34;8.38;;;7.63;;
17997;SDS011;9124;48.144;17.098;2024-03-25T23:47:01;7.47;;;6.88;;
17997;SDS011;9124;48.144;17.098;2024-03-25T23:51:27;8.27;;;7.18;;
17997;SDS011;9124;48.144;17.098;2024-03-25T23:55:54;9.57;;;8.10;;
